createdAt,value
2018-05-26T00:00:02.261Z,100295.20
2018-05-26T00:02:28.197Z,100195.38
2018-05-26T00:04:54.136Z,100292.41
2018-05-26T00:07:20.057Z,100290.42
2018-05-26T00:09:46.025Z,100298.17
2018-05-26T00:12:11.966Z,100296.78
2018-05-26T00:14:37.944Z,100293.88
2018-05-26T00:17:03.895Z,100302.56
2018-05-26T00:19:29.857Z,100300.11
2018-05-26T00:21:55.795Z,100308.73
2018-05-26T00:24:21.780Z,100311.42
2018-05-26T00:26:47.722Z,100315.72
2018-05-26T00:29:13.682Z,100311.44
2018-05-26T00:31:39.631Z,100314.16
2018-05-26T00:34:05.576Z,100308.60
2018-05-26T00:36:31.553Z,100297.56
2018-05-26T00:38:57.482Z,100304.31
2018-05-26T00:41:23.412Z,100300.30
2018-05-26T00:43:49.394Z,100301.27
2018-05-26T00:46:15.441Z,100308.83
2018-05-26T00:48:41.396Z,100302.27
2018-05-26T00:51:07.340Z,100307.30
2018-05-26T00:53:33.285Z,100307.34
2018-05-26T00:55:59.282Z,100307.14
2018-05-26T00:58:25.231Z,100314.83
2018-05-26T01:00:51.181Z,100316.62
2018-05-26T01:03:17.124Z,100315.02
2018-05-26T01:05:43.093Z,100321.16
2018-05-26T01:08:09.060Z,100327.39
2018-05-26T01:10:35.014Z,100323.48
2018-05-26T01:13:00.966Z,100322.55
2018-05-26T01:15:26.941Z,100318.02
2018-05-26T01:17:52.884Z,100322.95
2018-05-26T01:20:18.856Z,100317.88
2018-05-26T01:22:44.869Z,100305.64
2018-05-26T01:25:10.831Z,100317.02
2018-05-26T01:27:36.787Z,100311.95
2018-05-26T01:30:02.749Z,100315.58
2018-05-26T01:32:28.697Z,100314.33
2018-05-26T01:34:54.650Z,100319.69
2018-05-26T01:37:20.600Z,100325.33
2018-05-26T01:39:46.557Z,100323.28
2018-05-26T01:42:12.517Z,100323.39
2018-05-26T01:44:38.460Z,100320.86
2018-05-26T01:47:04.411Z,100323.81
2018-05-26T01:49:30.368Z,100324.52
2018-05-26T01:51:56.338Z,100325.59
2018-05-26T01:54:22.279Z,100323.00
2018-05-26T01:56:48.234Z,100325.77
2018-05-26T01:59:14.178Z,100327.77
2018-05-26T02:01:40.151Z,100324.18
2018-05-26T02:04:06.090Z,100325.41
2018-05-26T02:06:32.055Z,100320.80
2018-05-26T02:08:58.007Z,100319.98
2018-05-26T02:11:23.951Z,100317.86
2018-05-26T02:13:49.899Z,100314.25
2018-05-26T02:16:15.844Z,100319.79
2018-05-26T02:18:41.781Z,100316.00
2018-05-26T02:21:07.753Z,100319.65
2018-05-26T02:23:33.711Z,100314.33
2018-05-26T02:25:59.689Z,100322.48
2018-05-26T02:28:25.625Z,100320.57
2018-05-26T02:30:51.583Z,100329.00
2018-05-26T02:33:17.526Z,100325.64
2018-05-26T02:35:43.505Z,100322.28
2018-05-26T02:38:09.475Z,100323.81
2018-05-26T02:40:35.414Z,100321.16
2018-05-26T02:43:01.345Z,100326.05
2018-05-26T02:45:27.332Z,100325.02
2018-05-26T02:47:53.288Z,100324.41
2018-05-26T02:50:19.254Z,100329.88
2018-05-26T02:52:45.191Z,100328.28
2018-05-26T02:55:11.160Z,100332.37
2018-05-26T02:57:37.109Z,100335.12
2018-05-26T03:00:03.065Z,100333.19
2018-05-26T03:02:28.996Z,100327.44
2018-05-26T03:04:54.928Z,100324.00
2018-05-26T03:07:20.857Z,100326.52
2018-05-26T03:09:46.793Z,100333.94
2018-05-26T03:12:12.767Z,100334.28
2018-05-26T03:14:38.724Z,100335.39
2018-05-26T03:17:04.681Z,100337.00
2018-05-26T03:19:30.647Z,100340.47
2018-05-26T03:21:56.637Z,100340.05
2018-05-26T03:24:22.577Z,100332.91
2018-05-26T03:26:48.524Z,100339.25
2018-05-26T03:29:14.485Z,100341.41
2018-05-26T03:31:40.440Z,100341.50
2018-05-26T03:34:06.399Z,100345.34
2018-05-26T03:36:32.347Z,100338.97
2018-05-26T03:38:58.305Z,100340.22
2018-05-26T03:41:24.250Z,100345.18
2018-05-26T03:43:50.213Z,100350.14
2018-05-26T03:46:16.170Z,100340.87
2018-05-26T03:48:42.106Z,100353.21
2018-05-26T03:51:08.076Z,100353.14
2018-05-26T03:53:34.034Z,100349.97
2018-05-26T03:55:59.970Z,100354.80
2018-05-26T03:58:25.945Z,100352.67
2018-05-26T04:00:51.901Z,100352.22
2018-05-26T04:03:17.875Z,100351.73
2018-05-26T04:05:43.829Z,100354.77
2018-05-26T04:08:09.798Z,100359.37
2018-05-26T04:10:35.752Z,100368.35
2018-05-26T04:13:01.702Z,100365.66
2018-05-26T04:15:27.671Z,100365.44
2018-05-26T04:17:53.622Z,100367.48
2018-05-26T04:20:19.556Z,100369.94
2018-05-26T04:22:45.504Z,100370.09
2018-05-26T04:25:11.495Z,100374.84
2018-05-26T04:27:37.477Z,100376.45
2018-05-26T04:30:03.473Z,100371.63
2018-05-26T04:32:29.639Z,100358.63
2018-05-26T04:34:55.622Z,100379.11
2018-05-26T04:37:21.600Z,100380.00
2018-05-26T04:39:47.555Z,100376.65
2018-05-26T04:42:13.520Z,100375.29
2018-05-26T04:44:39.471Z,100385.77
2018-05-26T04:47:05.409Z,100382.34
2018-05-26T04:49:31.358Z,100394.19
2018-05-26T04:51:57.291Z,100385.33
2018-05-26T04:54:23.293Z,100388.84
2018-05-26T04:56:49.243Z,100396.05
2018-05-26T04:59:15.195Z,100394.17
2018-05-26T05:01:41.140Z,100398.91
2018-05-26T05:04:07.078Z,100394.18
2018-05-26T05:06:33.038Z,100399.07
2018-05-26T05:08:58.996Z,100394.13
2018-05-26T05:11:24.924Z,100394.45
2018-05-26T05:13:50.881Z,100395.77
2018-05-26T05:16:16.806Z,100395.05
2018-05-26T05:18:42.746Z,100391.86
2018-05-26T05:21:08.715Z,100398.88
2018-05-26T05:23:34.675Z,100395.08
2018-05-26T05:26:00.724Z,100397.84
2018-05-26T05:28:26.690Z,100398.17
2018-05-26T05:30:52.643Z,100400.20
2018-05-26T05:33:18.617Z,100400.31
2018-05-26T05:35:44.558Z,100402.95
2018-05-26T05:38:10.555Z,100402.05
2018-05-26T05:40:36.577Z,100406.31
2018-05-26T05:43:02.571Z,100404.09
2018-05-26T05:45:28.532Z,100407.87
2018-05-26T05:47:54.575Z,100403.44
2018-05-26T05:50:20.570Z,100410.31
2018-05-26T05:52:46.581Z,100409.94
2018-05-26T05:55:12.900Z,100412.34
2018-05-26T05:57:38.949Z,100405.75
2018-05-26T06:00:09.496Z,100406.95
2018-05-26T06:02:35.479Z,100417.58
2018-05-26T06:05:01.495Z,100408.86
2018-05-26T06:07:27.449Z,100422.41
2018-05-26T06:09:53.385Z,100424.61
2018-05-26T06:12:19.378Z,100426.90
2018-05-26T06:14:45.382Z,100421.34
2018-05-26T06:17:11.341Z,100428.02
2018-05-26T06:19:37.343Z,100430.13
2018-05-26T06:22:03.308Z,100429.34
2018-05-26T06:24:29.247Z,100429.63
2018-05-26T06:26:55.186Z,100432.55
2018-05-26T06:29:21.142Z,100431.92
2018-05-26T06:31:47.151Z,100433.46
2018-05-26T06:34:13.114Z,100431.98
2018-05-26T06:36:39.080Z,100429.73
2018-05-26T06:39:05.077Z,100433.98
2018-05-26T06:41:31.032Z,100435.55
2018-05-26T06:43:56.984Z,100437.90
2018-05-26T06:46:22.938Z,100435.81
2018-05-26T06:48:48.935Z,100435.84
2018-05-26T06:51:14.989Z,100437.71
2018-05-26T06:53:40.945Z,100439.35
2018-05-26T06:56:06.893Z,100442.09
2018-05-26T06:58:33.173Z,100440.37
2018-05-26T07:00:59.133Z,100443.09
2018-05-26T07:03:25.123Z,100448.16
2018-05-26T07:05:51.115Z,100448.81
2018-05-26T07:08:17.088Z,100449.20
2018-05-26T07:10:43.050Z,100444.91
2018-05-26T07:13:09.031Z,100443.73
2018-05-26T07:15:34.973Z,100448.31
2018-05-26T07:18:00.959Z,100447.78
2018-05-26T07:20:26.916Z,100439.11
2018-05-26T07:22:52.879Z,100439.17
2018-05-26T07:25:18.812Z,100435.06
2018-05-26T07:27:44.777Z,100439.25
2018-05-26T07:30:10.711Z,100435.03
2018-05-26T07:32:36.675Z,100440.19
2018-05-26T07:35:03.676Z,100437.62
2018-05-26T07:37:29.688Z,100433.94
2018-05-26T07:39:55.652Z,100437.91
2018-05-26T07:42:22.640Z,100434.97
2018-05-26T07:44:48.620Z,100432.45
2018-05-26T07:47:14.619Z,100435.49
2018-05-26T07:49:40.594Z,100429.45
2018-05-26T07:52:06.658Z,100426.45
2018-05-26T07:54:32.854Z,100425.66
2018-05-26T07:56:58.819Z,100430.53
2018-05-26T07:59:24.785Z,100432.64
2018-05-26T08:01:50.793Z,100427.14
2018-05-26T08:04:16.772Z,100425.99
2018-05-26T08:06:42.752Z,100430.34
2018-05-26T08:09:08.703Z,100423.72
2018-05-26T08:11:34.748Z,100421.60
2018-05-26T08:14:00.747Z,100425.52
2018-05-26T08:16:26.879Z,100431.56
2018-05-26T08:18:52.874Z,100429.34
2018-05-26T08:21:18.863Z,100429.32
2018-05-26T08:23:45.094Z,100428.12
2018-05-26T08:26:11.393Z,100432.97
2018-05-26T08:28:37.641Z,100429.52
2018-05-26T08:31:03.657Z,100426.57
2018-05-26T08:33:29.639Z,100431.59
2018-05-26T08:35:55.597Z,100430.88
2018-05-26T08:38:21.640Z,100426.28
2018-05-26T08:40:47.588Z,100430.77
2018-05-26T08:43:13.533Z,100429.05
2018-05-26T08:45:39.558Z,100427.56
2018-05-26T08:48:05.522Z,100432.83
2018-05-26T08:50:31.493Z,100418.71
2018-05-26T08:52:57.440Z,100411.75
2018-05-26T08:55:23.400Z,100415.55
2018-05-26T08:57:49.358Z,100418.37
2018-05-26T09:00:15.310Z,100411.67
2018-05-26T09:02:41.316Z,100414.95
2018-05-26T09:05:07.305Z,100413.63
2018-05-26T09:07:33.250Z,100414.91
2018-05-26T09:09:59.225Z,100415.70
2018-05-26T09:12:25.188Z,100412.52
2018-05-26T09:14:51.222Z,100411.06
2018-05-26T09:17:17.150Z,100409.35
2018-05-26T09:19:43.213Z,100404.98
2018-05-26T09:22:09.163Z,100401.73
2018-05-26T09:24:35.127Z,100402.77
2018-05-26T09:27:01.066Z,100409.11
2018-05-26T09:29:27.090Z,100402.66
2018-05-26T09:31:53.091Z,100402.88
2018-05-26T09:34:19.035Z,100402.52
2018-05-26T09:36:45.051Z,100401.62
2018-05-26T09:41:43.573Z,100399.74
2018-05-26T09:44:09.549Z,100397.98
2018-05-26T09:46:35.503Z,100403.45
2018-05-26T09:49:05.724Z,100393.69
2018-05-26T09:54:04.155Z,100393.14
2018-05-26T09:56:30.174Z,100389.35
2018-05-26T09:58:56.259Z,100392.29
2018-05-26T10:01:22.265Z,100388.86
2018-05-26T10:03:48.236Z,100383.26
2018-05-26T10:06:14.180Z,100382.55
2018-05-26T10:08:40.125Z,100384.69
2018-05-26T10:11:06.089Z,100375.41
2018-05-26T10:13:32.171Z,100378.66
2018-05-26T10:15:58.148Z,100386.76
2018-05-26T10:18:25.178Z,100380.98
2018-05-26T10:20:51.254Z,100379.95
2018-05-26T10:23:17.218Z,100387.06
2018-05-26T10:25:43.323Z,100378.27
2018-05-26T10:28:09.280Z,100380.77
2018-05-26T10:30:35.222Z,100380.70
2018-05-26T10:33:01.168Z,100376.36
2018-05-26T10:35:27.197Z,100390.91
2018-05-26T10:37:53.117Z,100386.16
2018-05-26T10:40:19.101Z,100385.55
2018-05-26T10:42:45.066Z,100385.30
2018-05-26T10:45:11.034Z,100375.83
2018-05-26T10:47:36.989Z,100386.14
2018-05-26T10:50:02.998Z,100386.80
2018-05-26T10:52:29.156Z,100386.14
2018-05-26T10:54:55.134Z,100388.23
2018-05-26T10:57:21.079Z,100391.30
2018-05-26T10:59:47.023Z,100383.52
2018-05-26T11:02:12.998Z,100386.62
2018-05-26T11:04:39.000Z,100389.16
2018-05-26T11:07:04.972Z,100390.23
2018-05-26T11:09:30.988Z,100383.35
2018-05-26T11:11:56.940Z,100386.75
2018-05-26T11:14:22.942Z,100382.63
2018-05-26T11:16:48.869Z,100386.47
2018-05-26T11:19:14.885Z,100383.88
2018-05-26T11:21:40.823Z,100381.98
2018-05-26T11:24:07.052Z,100385.28
2018-05-26T11:26:32.751Z,100383.81
2018-05-26T11:28:58.726Z,100380.71
2018-05-26T11:31:24.665Z,100361.45
2018-05-26T11:33:50.618Z,100375.69
2018-05-26T11:36:16.581Z,100378.44
2018-05-26T11:38:42.518Z,100373.31
2018-05-26T11:41:08.480Z,100373.15
2018-05-26T11:43:34.527Z,100373.75
2018-05-26T11:46:00.463Z,100372.16
2018-05-26T11:48:26.421Z,100370.50
2018-05-26T11:50:52.376Z,100359.77
2018-05-26T11:53:19.430Z,100370.25
2018-05-26T11:55:45.370Z,100369.34
2018-05-26T11:58:11.352Z,100373.33
2018-05-26T12:00:37.299Z,100373.30
2018-05-26T12:03:03.335Z,100372.17
2018-05-26T12:05:29.285Z,100365.20
2018-05-26T12:07:55.224Z,100365.13
2018-05-26T12:10:21.165Z,100370.05
2018-05-26T12:12:47.138Z,100373.19
2018-05-26T12:15:13.131Z,100360.45
2018-05-26T12:17:39.101Z,100367.91
2018-05-26T12:20:05.033Z,100368.22
2018-05-26T12:22:30.971Z,100364.32
2018-05-26T12:24:56.914Z,100362.77
2018-05-26T12:27:22.855Z,100353.99
2018-05-26T12:29:48.785Z,100361.27
2018-05-26T12:32:14.752Z,100362.75
2018-05-26T12:34:40.684Z,100370.34
2018-05-26T12:37:06.722Z,100368.19
2018-05-26T12:39:32.693Z,100363.13
2018-05-26T12:41:58.653Z,100360.11
2018-05-26T12:44:24.604Z,100359.59
2018-05-26T12:46:50.544Z,100355.94
2018-05-26T12:49:16.498Z,100355.52
2018-05-26T12:51:42.504Z,100360.91
2018-05-26T12:54:08.485Z,100356.57
2018-05-26T12:56:34.458Z,100350.09
2018-05-26T12:59:00.439Z,100352.13
2018-05-26T13:01:26.445Z,100353.31
2018-05-26T13:03:52.490Z,100348.41
2018-05-26T13:06:18.469Z,100356.66
2018-05-26T13:08:44.425Z,100345.08
2018-05-26T13:11:10.428Z,100345.77
2018-05-26T13:13:36.385Z,100343.64
2018-05-26T13:16:02.321Z,100350.90
2018-05-26T13:18:28.297Z,100343.14
2018-05-26T13:20:54.357Z,100350.38
2018-05-26T13:23:20.314Z,100350.48
2018-05-26T13:25:46.269Z,100348.42
2018-05-26T13:28:12.249Z,100351.77
2018-05-26T13:30:38.193Z,100345.86
2018-05-26T13:33:04.164Z,100349.72
2018-05-26T13:35:30.097Z,100354.48
2018-05-26T13:37:56.053Z,100354.59
2018-05-26T13:40:22.009Z,100353.80
2018-05-26T13:42:47.977Z,100345.09
2018-05-26T13:45:13.929Z,100344.78
2018-05-26T13:47:39.918Z,100347.21
2018-05-26T13:50:05.851Z,100338.59
2018-05-26T13:52:31.811Z,100342.02
2018-05-26T13:54:57.828Z,100338.66
2018-05-26T13:57:23.745Z,100338.16
2018-05-26T13:59:49.678Z,100337.91
2018-05-26T14:02:15.629Z,100334.12
2018-05-26T14:04:41.580Z,100325.70
2018-05-26T14:07:07.541Z,100323.14
2018-05-26T14:09:33.474Z,100325.83
2018-05-26T14:11:59.414Z,100319.95
2018-05-26T14:14:25.369Z,100320.12
2018-05-26T14:16:51.328Z,100323.36
2018-05-26T14:19:17.288Z,100325.80
2018-05-26T14:21:43.241Z,100315.98
2018-05-26T14:24:09.235Z,100316.05
2018-05-26T14:26:35.197Z,100317.97
2018-05-26T14:29:01.186Z,100319.69
2018-05-26T14:31:27.152Z,100321.67
2018-05-26T14:33:53.143Z,100322.44
2018-05-26T14:36:19.118Z,100316.62
2018-05-26T14:38:45.083Z,100309.33
2018-05-26T14:41:11.094Z,100317.31
2018-05-26T14:43:37.110Z,100315.16
2018-05-26T14:46:03.088Z,100312.41
2018-05-26T14:48:29.064Z,100312.24
2018-05-26T14:53:26.762Z,100312.52
2018-05-26T14:55:52.747Z,100306.78
2018-05-26T14:58:18.731Z,100307.61
2018-05-26T15:00:44.729Z,100312.06
2018-05-26T15:03:10.708Z,100309.64
2018-05-26T15:05:36.780Z,100308.02
2018-05-26T15:08:02.739Z,100304.09
2018-05-26T15:10:28.671Z,100297.66
2018-05-26T15:12:54.685Z,100294.70
2018-05-26T15:15:20.615Z,100295.14
2018-05-26T15:17:46.610Z,100284.51
2018-05-26T15:20:12.590Z,100295.17
2018-05-26T15:22:38.769Z,100290.84
2018-05-26T15:25:04.724Z,100283.84
2018-05-26T15:27:30.695Z,100281.89
2018-05-26T15:29:56.683Z,100282.84
2018-05-26T15:32:22.652Z,100273.95
2018-05-26T15:34:48.623Z,100276.88
2018-05-26T15:37:14.560Z,100276.12
2018-05-26T15:39:40.513Z,100270.45
2018-05-26T15:42:06.469Z,100271.92
2018-05-26T15:44:32.446Z,100271.17
2018-05-26T15:46:58.434Z,100272.86
2018-05-26T15:49:24.417Z,100271.30
2018-05-26T15:51:50.362Z,100268.64
2018-05-26T15:54:16.337Z,100266.58
2018-05-26T15:56:42.279Z,100266.70
2018-05-26T15:59:08.268Z,100266.14
2018-05-26T16:01:34.225Z,100267.66
2018-05-26T16:04:00.221Z,100270.45
2018-05-26T16:06:26.163Z,100275.88
2018-05-26T16:08:52.121Z,100271.81
2018-05-26T16:11:18.091Z,100275.98
2018-05-26T16:13:44.061Z,100274.68
2018-05-26T16:16:10.060Z,100271.44
2018-05-26T16:18:36.052Z,100271.19
2018-05-26T16:23:33.247Z,100278.79
2018-05-26T16:25:59.239Z,100271.13
2018-05-26T16:28:25.209Z,100277.19
2018-05-26T16:30:51.188Z,100273.30
2018-05-26T16:33:17.210Z,100272.44
2018-05-26T16:35:43.259Z,100277.66
2018-05-26T16:38:09.238Z,100277.95
2018-05-26T16:40:35.346Z,100281.91
2018-05-26T16:43:01.291Z,100284.97
2018-05-26T16:45:27.266Z,100280.26
2018-05-26T16:47:53.223Z,100287.06
2018-05-26T16:50:19.217Z,100285.58
2018-05-26T16:52:45.204Z,100285.40
2018-05-26T16:55:11.361Z,100283.05
2018-05-26T16:57:37.474Z,100281.06
2018-05-26T17:00:04.521Z,100281.61
2018-05-26T17:02:30.543Z,100287.53
2018-05-26T17:04:56.621Z,100285.80
2018-05-26T17:07:22.678Z,100281.19
2018-05-26T17:09:48.664Z,100282.91
2018-05-26T17:12:14.643Z,100282.84
2018-05-26T17:14:40.646Z,100286.55
2018-05-26T17:17:06.811Z,100287.08
2018-05-26T17:19:32.865Z,100282.75
2018-05-26T17:21:59.874Z,100287.58
2018-05-26T17:24:25.918Z,100284.33
2018-05-26T17:26:51.998Z,100283.71
2018-05-26T17:29:18.018Z,100280.28
2018-05-26T17:31:44.059Z,100280.16
2018-05-26T17:34:10.075Z,100280.10
2018-05-26T17:36:36.111Z,100275.27
2018-05-26T17:41:33.379Z,100280.03
2018-05-26T17:44:00.348Z,100279.41
2018-05-26T17:46:26.308Z,100273.91
2018-05-26T17:48:52.399Z,100278.55
2018-05-26T17:51:18.422Z,100279.11
2018-05-26T17:53:44.414Z,100284.94
2018-05-26T17:56:10.436Z,100278.48
2018-05-26T17:58:36.411Z,100279.73
2018-05-26T18:01:02.426Z,100277.91
2018-05-26T18:03:28.416Z,100274.45
2018-05-26T18:05:54.385Z,100265.64
2018-05-26T18:08:20.389Z,100270.80
2018-05-26T18:10:46.387Z,100269.15
2018-05-26T18:13:12.479Z,100267.84
2018-05-26T18:15:38.456Z,100267.99
2018-05-26T18:18:04.408Z,100273.06
2018-05-26T18:20:30.462Z,100271.52
2018-05-26T18:22:57.069Z,100271.86
2018-05-26T18:25:23.050Z,100273.48
2018-05-26T18:27:49.004Z,100274.22
2018-05-26T18:30:15.015Z,100273.26
2018-05-26T18:32:41.809Z,100275.81
2018-05-26T18:35:07.784Z,100279.91
2018-05-26T18:37:33.784Z,100284.72
2018-05-26T18:39:59.790Z,100274.06
2018-05-26T18:42:25.817Z,100277.56
2018-05-26T18:44:51.781Z,100279.19
2018-05-26T18:47:17.769Z,100279.47
2018-05-26T18:49:43.751Z,100277.87
2018-05-26T18:52:09.725Z,100284.44
2018-05-26T18:54:35.677Z,100288.66
2018-05-26T18:57:01.696Z,100295.09
2018-05-26T18:59:27.728Z,100289.02
2018-05-26T19:01:53.678Z,100288.64
2018-05-26T19:04:19.657Z,100286.38
2018-05-26T19:06:45.613Z,100293.73
2018-05-26T19:09:11.586Z,100293.14
2018-05-26T19:11:37.596Z,100297.52
2018-05-26T19:14:03.596Z,100300.26
2018-05-26T19:16:29.602Z,100301.06
2018-05-26T19:18:55.566Z,100303.22
2018-05-26T19:21:21.524Z,100305.59
2018-05-26T19:23:47.505Z,100311.42
2018-05-26T19:26:13.477Z,100314.62
2018-05-26T19:28:39.684Z,100320.06
2018-05-26T19:31:05.703Z,100318.98
2018-05-26T19:33:31.683Z,100323.52
2018-05-26T19:35:57.751Z,100318.81
2018-05-26T19:38:23.780Z,100328.06
2018-05-26T19:40:49.804Z,100329.70
2018-05-26T19:43:15.822Z,100327.53
2018-05-26T19:45:41.832Z,100330.11
2018-05-26T19:48:07.781Z,100327.16
2018-05-26T19:50:33.752Z,100326.02
2018-05-26T19:52:59.709Z,100325.18
2018-05-26T19:55:25.662Z,100323.40
2018-05-26T19:57:51.700Z,100323.63
2018-05-26T20:00:17.691Z,100323.47
2018-05-26T20:02:43.667Z,100324.52
2018-05-26T20:05:09.732Z,100326.83
2018-05-26T20:07:35.675Z,100326.12
2018-05-26T20:10:01.615Z,100327.77
2018-05-26T20:12:27.558Z,100324.38
2018-05-26T20:14:53.554Z,100324.92
2018-05-26T20:17:19.520Z,100325.67
2018-05-26T20:19:45.480Z,100316.09
2018-05-26T20:22:11.443Z,100319.45
2018-05-26T20:24:37.399Z,100323.86
2018-05-26T20:27:03.348Z,100319.13
2018-05-26T20:29:29.313Z,100328.17
2018-05-26T20:31:55.286Z,100325.95
2018-05-26T20:34:21.249Z,100326.85
2018-05-26T20:36:47.207Z,100323.00
2018-05-26T20:39:13.149Z,100323.26
2018-05-26T20:41:39.108Z,100330.54
2018-05-26T20:44:05.090Z,100330.07
2018-05-26T20:46:31.062Z,100330.55
2018-05-26T20:48:57.030Z,100336.09
2018-05-26T20:51:23.053Z,100341.95
2018-05-26T20:53:49.010Z,100341.16
2018-05-26T20:56:15.006Z,100338.03
2018-05-26T20:58:40.978Z,100347.97
2018-05-26T21:01:06.946Z,100343.84
2018-05-26T21:03:32.923Z,100350.49
2018-05-26T21:05:58.857Z,100355.64
2018-05-26T21:08:24.834Z,100357.30
2018-05-26T21:10:50.987Z,100349.16
2018-05-26T21:13:16.919Z,100350.52
2018-05-26T21:15:42.856Z,100354.78
2018-05-26T21:18:08.832Z,100347.03
2018-05-26T21:20:34.827Z,100348.59
2018-05-26T21:23:00.776Z,100342.75
2018-05-26T21:25:26.734Z,100343.03
2018-05-26T21:27:52.733Z,100345.47
2018-05-26T21:30:18.693Z,100344.06
2018-05-26T21:32:44.732Z,100342.45
2018-05-26T21:35:10.697Z,100351.31
2018-05-26T21:37:37.109Z,100349.35
2018-05-26T21:40:03.098Z,100353.55
2018-05-26T21:42:29.038Z,100360.22
2018-05-26T21:44:54.966Z,100360.66
2018-05-26T21:47:20.975Z,100352.35
2018-05-26T21:49:48.933Z,100360.61
2018-05-26T21:52:14.877Z,100365.94
2018-05-26T21:54:40.856Z,100367.80
2018-05-26T21:57:06.874Z,100366.29
2018-05-26T21:59:32.828Z,100368.29
2018-05-26T22:01:58.816Z,100360.84
2018-05-26T22:04:24.776Z,100364.66
2018-05-26T22:06:50.709Z,100366.20
2018-05-26T22:09:16.661Z,100368.18
2018-05-26T22:11:46.418Z,100369.80
2018-05-26T22:14:12.400Z,100370.19
2018-05-26T22:16:38.356Z,100372.08
2018-05-26T22:21:36.069Z,100370.02
2018-05-26T22:24:02.051Z,100369.33
2018-05-26T22:26:28.005Z,100365.73
2018-05-26T22:28:53.941Z,100374.00
2018-05-26T22:31:19.887Z,100370.19
2018-05-26T22:33:45.850Z,100371.13
2018-05-26T22:36:11.820Z,100370.81
2018-05-26T22:38:38.380Z,100371.83
2018-05-26T22:41:04.344Z,100374.27
2018-05-26T22:43:30.280Z,100372.67
2018-05-26T22:45:56.241Z,100374.77
2018-05-26T22:48:22.172Z,100374.97
2018-05-26T22:50:48.118Z,100371.81
2018-05-26T22:53:14.082Z,100363.91
2018-05-26T22:55:40.027Z,100369.84
2018-05-26T22:58:06.001Z,100364.96
2018-05-26T23:00:31.944Z,100368.41
2018-05-26T23:02:57.911Z,100372.72
2018-05-26T23:05:24.626Z,100367.25
2018-05-26T23:07:50.566Z,100368.45
2018-05-26T23:10:16.497Z,100371.67
2018-05-26T23:12:42.477Z,100377.05
2018-05-26T23:15:08.418Z,100373.59
2018-05-26T23:17:34.363Z,100373.34
2018-05-26T23:20:00.307Z,100372.91
2018-05-26T23:22:26.257Z,100370.91
2018-05-26T23:24:52.213Z,100377.14
2018-05-26T23:27:18.162Z,100374.42
2018-05-26T23:29:44.128Z,100366.59
2018-05-26T23:32:10.076Z,100369.83
2018-05-26T23:34:36.036Z,100372.75
2018-05-26T23:37:01.983Z,100368.85
2018-05-26T23:39:28.031Z,100369.13
2018-05-26T23:41:53.971Z,100363.13
2018-05-26T23:44:19.932Z,100363.44
2018-05-26T23:46:45.879Z,100362.25
2018-05-26T23:49:11.852Z,100356.63
2018-05-26T23:51:37.787Z,100350.31
2018-05-26T23:54:03.734Z,100355.44
2018-05-26T23:56:29.672Z,100350.11
2018-05-26T23:58:55.632Z,100353.76
